Napoleon, North Dakota
Current Conditions -  °F | °C
As of 2:15 PM on Monday 24 Nov 2014 (Local Time) from K7L2 Reporting Station
Clear Clear  
Wind Chill:   Ceiling: Unl
Heat Index: 23°   Visibility: 10mi
Dew Point:   Wind: 18mph
Humidity: 39%   Direction: 330°NNW
Pressure: 29.93"   Gusts: 23mph
Location:  46.51°N, 99.77°W
Report Text: K7L2 242015Z AUTO 33016G20KT 10SM CLR M05/M17 A2993 RMK AO2
Loading
Personal Weather Stations






























Interactive Weather Map New forecast layout! Learn more

10-Day Weather Forecast

Advertisements
Track Severe Weather on mobile